sensor_id;sensor_type;location;lat;lon;timestamp;pressure;altitude;pressure_sealevel;temperature;humidity
18569;BME280;14780;48.316;-1.050;2023-03-04T00:00:11;100005.19;;;24.99;27.38
18569;BME280;14780;48.316;-1.050;2023-03-04T00:02:56;100003.31;;;25.00;27.45
18569;BME280;14780;48.316;-1.050;2023-03-04T00:05:41;100014.50;;;24.98;27.54
18569;BME280;14780;48.316;-1.050;2023-03-04T00:08:26;100008.47;;;24.96;27.50
18569;BME280;14780;48.316;-1.050;2023-03-04T00:11:11;100004.63;;;24.97;27.39
18569;BME280;14780;48.316;-1.050;2023-03-04T00:13:56;100007.38;;;24.97;27.48
18569;BME280;14780;48.316;-1.050;2023-03-04T00:16:41;100010.13;;;24.97;27.51
18569;BME280;14780;48.316;-1.050;2023-03-04T00:19:26;100008.47;;;24.96;27.49
18569;BME280;14780;48.316;-1.050;2023-03-04T00:22:10;100007.38;;;24.97;27.50
18569;BME280;14780;48.316;-1.050;2023-03-04T00:24:55;100014.78;;;24.97;27.52
18569;BME280;14780;48.316;-1.050;2023-03-04T00:27:40;100012.28;;;24.95;27.48
18569;BME280;14780;48.316;-1.050;2023-03-04T00:30:25;100005.16;;;24.94;27.36
18569;BME280;14780;48.316;-1.050;2023-03-04T00:33:10;100015.28;;;24.94;27.53
18569;BME280;14780;48.316;-1.050;2023-03-04T00:35:55;100023.75;;;24.92;27.41
18569;BME280;14780;48.316;-1.050;2023-03-04T00:38:40;100017.44;;;24.92;27.36
18569;BME280;14780;48.316;-1.050;2023-03-04T00:41:25;100020.97;;;24.87;27.50
18569;BME280;14780;48.316;-1.050;2023-03-04T00:44:10;100019.31;;;24.86;27.51
18569;BME280;14780;48.316;-1.050;2023-03-04T00:46:54;100020.41;;;24.85;27.53
18569;BME280;14780;48.316;-1.050;2023-03-04T00:49:38;100016.81;;;24.85;27.52
18569;BME280;14780;48.316;-1.050;2023-03-04T00:52:23;100013.53;;;24.83;27.53
18569;BME280;14780;48.316;-1.050;2023-03-04T00:55:09;100024.72;;;24.81;27.55
18569;BME280;14780;48.316;-1.050;2023-03-04T00:57:53;100017.03;;;24.78;27.63
18569;BME280;14780;48.316;-1.050;2023-03-04T01:00:38;100017.03;;;24.78;27.52
18569;BME280;14780;48.316;-1.050;2023-03-04T01:03:22;100017.53;;;24.75;27.40
18569;BME280;14780;48.316;-1.050;2023-03-04T01:06:08;100023.25;;;24.74;27.48
18569;BME280;14780;48.316;-1.050;2023-03-04T01:08:53;100032.31;;;24.74;27.50
18569;BME280;14780;48.316;-1.050;2023-03-04T01:11:37;100037.22;;;24.72;27.44
18569;BME280;14780;48.316;-1.050;2023-03-04T01:14:22;100019.69;;;24.73;27.52
18569;BME280;14780;48.316;-1.050;2023-03-04T01:17:06;100025.09;;;24.68;27.59
18569;BME280;14780;48.316;-1.050;2023-03-04T01:19:51;100032.50;;;24.68;27.43
18569;BME280;14780;48.316;-1.050;2023-03-04T01:22:36;100032.50;;;24.68;27.55
18569;BME280;14780;48.316;-1.050;2023-03-04T01:25:21;100031.09;;;24.65;27.47
18569;BME280;14780;48.316;-1.050;2023-03-04T01:28:05;100022.31;;;24.63;27.47
18569;BME280;14780;48.316;-1.050;2023-03-04T01:30:50;100016.81;;;24.63;27.54
18569;BME280;14780;48.316;-1.050;2023-03-04T01:33:34;100009.69;;;24.62;27.60
18569;BME280;14780;48.316;-1.050;2023-03-04T01:36:19;100013.53;;;24.61;27.63
18569;BME280;14780;48.316;-1.050;2023-03-04T01:39:05;100007.25;;;24.61;27.42
18569;BME280;14780;48.316;-1.050;2023-03-04T01:41:49;100003.66;;;24.60;27.62
18569;BME280;14780;48.316;-1.050;2023-03-04T01:44:34;100002.81;;;24.60;27.62
18569;BME280;14780;48.316;-1.050;2023-03-04T01:47:22;99997.63;;;24.58;27.55
18569;BME280;14780;48.316;-1.050;2023-03-04T01:50:32;100004.75;;;24.59;27.69
18569;BME280;14780;48.316;-1.050;2023-03-04T01:53:23;100009.66;;;24.57;27.61
18569;BME280;14780;48.316;-1.050;2023-03-04T01:56:17;100008.56;;;24.58;27.56
18569;BME280;14780;48.316;-1.050;2023-03-04T02:01:55;100004.22;;;24.62;27.58
18569;BME280;14780;48.316;-1.050;2023-03-04T02:04:41;100001.09;;;24.54;27.58
18569;BME280;14780;48.316;-1.050;2023-03-04T02:07:26;100008.47;;;24.53;27.80
18569;BME280;14780;48.316;-1.050;2023-03-04T02:10:12;100005.72;;;24.53;27.62
18569;BME280;14780;48.316;-1.050;2023-03-04T02:12:58;99999.19;;;24.54;27.78
18569;BME280;14780;48.316;-1.050;2023-03-04T02:15:44;99997.53;;;24.53;27.67
18569;BME280;14780;48.316;-1.050;2023-03-04T02:18:29;100003.84;;;24.54;27.70
18569;BME280;14780;48.316;-1.050;2023-03-04T02:21:26;100000.63;;;24.57;27.71
18569;BME280;14780;48.316;-1.050;2023-03-04T02:24:14;100003.84;;;24.54;27.65
18569;BME280;14780;48.316;-1.050;2023-03-04T02:27:01;99996.22;;;24.56;27.58
18569;BME280;14780;48.316;-1.050;2023-03-04T02:29:46;99999.19;;;24.54;27.62
18569;BME280;14780;48.316;-1.050;2023-03-04T02:32:30;99994.91;;;24.58;27.69
18569;BME280;14780;48.316;-1.050;2023-03-04T02:35:19;100002.00;;;24.59;27.56
18569;BME280;14780;48.316;-1.050;2023-03-04T02:38:04;100004.19;;;24.57;27.68
18569;BME280;14780;48.316;-1.050;2023-03-04T02:40:51;100001.44;;;24.57;27.56
18569;BME280;14780;48.316;-1.050;2023-03-04T02:43:39;99987.78;;;24.57;27.72
18569;BME280;14780;48.316;-1.050;2023-03-04T02:46:25;99994.91;;;24.58;27.61
18569;BME280;14780;48.316;-1.050;2023-03-04T02:49:09;99986.69;;;24.58;27.64
18569;BME280;14780;48.316;-1.050;2023-03-04T02:52:06;99995.47;;;24.60;27.56
18569;BME280;14780;48.316;-1.050;2023-03-04T02:54:51;99986.09;;;24.56;27.56
18569;BME280;14780;48.316;-1.050;2023-03-04T02:57:36;99983.94;;;24.58;27.56
18569;BME280;14780;48.316;-1.050;2023-03-04T03:00:21;99982.31;;;24.57;27.64
18569;BME280;14780;48.316;-1.050;2023-03-04T03:03:06;99976.81;;;24.57;27.66
18569;BME280;14780;48.316;-1.050;2023-03-04T03:05:52;99984.19;;;24.57;27.71
18569;BME280;14780;48.316;-1.050;2023-03-04T03:08:37;99983.34;;;24.56;27.59
18569;BME280;14780;48.316;-1.050;2023-03-04T03:11:22;99980.03;;;24.54;27.58
18569;BME280;14780;48.316;-1.050;2023-03-04T03:14:07;99981.09;;;24.53;27.64
18569;BME280;14780;48.316;-1.050;2023-03-04T03:16:52;99984.94;;;24.52;27.73
18569;BME280;14780;48.316;-1.050;2023-03-04T03:19:36;99978.91;;;24.50;27.61
18569;BME280;14780;48.316;-1.050;2023-03-04T03:22:21;99979.97;;;24.49;27.61
18569;BME280;14780;48.316;-1.050;2023-03-04T03:25:07;99983.78;;;24.48;27.63
18569;BME280;14780;48.316;-1.050;2023-03-04T03:27:52;99979.66;;;24.46;27.71
18569;BME280;14780;48.316;-1.050;2023-03-04T03:30:37;99982.66;;;24.44;27.62
18569;BME280;14780;48.316;-1.050;2023-03-04T03:33:21;99975.53;;;24.43;27.73
18569;BME280;14780;48.316;-1.050;2023-03-04T03:36:06;99974.94;;;24.41;27.72
18569;BME280;14780;48.316;-1.050;2023-03-04T03:38:51;99978.50;;;24.42;27.64
18569;BME280;14780;48.316;-1.050;2023-03-04T03:41:36;99984.75;;;24.37;27.81
18569;BME280;14780;48.316;-1.050;2023-03-04T03:44:20;99981.75;;;24.39;27.80
18569;BME280;14780;48.316;-1.050;2023-03-04T03:47:05;99983.66;;;24.38;27.61
18569;BME280;14780;48.316;-1.050;2023-03-04T03:49:50;99985.31;;;24.39;27.76
18569;BME280;14780;48.316;-1.050;2023-03-04T03:52:35;99989.13;;;24.38;27.79
18569;BME280;14780;48.316;-1.050;2023-03-04T03:55:20;99983.34;;;24.35;27.67
18569;BME280;14780;48.316;-1.050;2023-03-04T03:58:05;99985.22;;;24.34;27.63
18569;BME280;14780;48.316;-1.050;2023-03-04T04:00:49;99990.13;;;24.32;27.70
18569;BME280;14780;48.316;-1.050;2023-03-04T04:03:34;99985.75;;;24.31;27.65
18569;BME280;14780;48.316;-1.050;2023-03-04T04:06:19;99992.31;;;24.30;27.79
18569;BME280;14780;48.316;-1.050;2023-03-04T04:09:03;99987.34;;;24.27;27.71
18569;BME280;14780;48.316;-1.050;2023-03-04T04:11:48;99991.75;;;24.28;27.64
18569;BME280;14780;48.316;-1.050;2023-03-04T04:14:33;99987.94;;;24.29;27.75
18569;BME280;14780;48.316;-1.050;2023-03-04T04:17:18;99989.00;;;24.28;27.78
18569;BME280;14780;48.316;-1.050;2023-03-04T04:20:04;99984.34;;;24.29;27.79
18569;BME280;14780;48.316;-1.050;2023-03-04T04:22:48;99988.16;;;24.28;27.69
18569;BME280;14780;48.316;-1.050;2023-03-04T04:25:33;99982.69;;;24.28;27.66
18569;BME280;14780;48.316;-1.050;2023-03-04T04:28:17;99989.00;;;24.28;27.73
18569;BME280;14780;48.316;-1.050;2023-03-04T04:31:05;99990.06;;;24.27;27.69
18569;BME280;14780;48.316;-1.050;2023-03-04T04:33:50;99990.06;;;24.27;27.94
18569;BME280;14780;48.316;-1.050;2023-03-04T04:36:35;99992.00;;;24.27;27.76
18569;BME280;14780;48.316;-1.050;2023-03-04T04:39:19;99996.06;;;24.24;27.84
18569;BME280;14780;48.316;-1.050;2023-03-04T04:42:04;99985.69;;;24.26;27.70
18569;BME280;14780;48.316;-1.050;2023-03-04T04:44:49;99987.84;;;24.24;27.80
18569;BME280;14780;48.316;-1.050;2023-03-04T04:47:34;99983.22;;;24.25;27.73
18569;BME280;14780;48.316;-1.050;2023-03-04T04:50:18;99991.66;;;24.23;27.67
18569;BME280;14780;48.316;-1.050;2023-03-04T04:53:03;99985.69;;;24.26;27.77
18569;BME280;14780;48.316;-1.050;2023-03-04T04:55:48;99985.97;;;24.25;27.73
18569;BME280;14780;48.316;-1.050;2023-03-04T04:58:32;99994.97;;;24.25;27.65
18569;BME280;14780;48.316;-1.050;2023-03-04T05:01:17;99994.16;;;24.25;27.62
18569;BME280;14780;48.316;-1.050;2023-03-04T05:04:02;99993.88;;;24.26;27.67
18569;BME280;14780;48.316;-1.050;2023-03-04T05:06:47;99996.63;;;24.26;27.59
18569;BME280;14780;48.316;-1.050;2023-03-04T05:09:31;100000.44;;;24.25;27.75
18569;BME280;14780;48.316;-1.050;2023-03-04T05:12:17;100002.09;;;24.26;27.62
18569;BME280;14780;48.316;-1.050;2023-03-04T05:15:02;99996.63;;;24.26;27.57
18569;BME280;14780;48.316;-1.050;2023-03-04T05:17:46;100005.41;;;24.28;27.68
18569;BME280;14780;48.316;-1.050;2023-03-04T05:20:31;99998.28;;;24.27;27.62
18569;BME280;14780;48.316;-1.050;2023-03-04T05:23:15;99995.81;;;24.26;27.70
18569;BME280;14780;48.316;-1.050;2023-03-04T05:26:01;100005.91;;;24.25;27.69
18569;BME280;14780;48.316;-1.050;2023-03-04T05:28:46;99999.63;;;24.25;27.54
18569;BME280;14780;48.316;-1.050;2023-03-04T05:31:31;100006.75;;;24.26;27.56
18569;BME280;14780;48.316;-1.050;2023-03-04T05:34:16;100003.41;;;24.24;27.52
18569;BME280;14780;48.316;-1.050;2023-03-04T05:37:01;99998.78;;;24.24;27.62
18569;BME280;14780;48.316;-1.050;2023-03-04T05:39:46;100002.59;;;24.23;27.61
18569;BME280;14780;48.316;-1.050;2023-03-04T05:42:31;99997.94;;;24.24;27.61
18569;BME280;14780;48.316;-1.050;2023-03-04T05:45:15;99998.22;;;24.22;27.48
18569;BME280;14780;48.316;-1.050;2023-03-04T05:48:00;100009.72;;;24.24;27.53
18569;BME280;14780;48.316;-1.050;2023-03-04T05:50:46;100003.69;;;24.22;27.51
18569;BME280;14780;48.316;-1.050;2023-03-04T05:53:31;100004.19;;;24.19;27.38
18569;BME280;14780;48.316;-1.050;2023-03-04T05:56:18;100006.91;;;24.19;27.46
18569;BME280;14780;48.316;-1.050;2023-03-04T05:59:03;100010.72;;;24.18;27.58
18569;BME280;14780;48.316;-1.050;2023-03-04T06:01:48;100004.44;;;24.18;27.58
18569;BME280;14780;48.316;-1.050;2023-03-04T06:04:33;100012.91;;;24.16;27.48
18569;BME280;14780;48.316;-1.050;2023-03-04T06:07:18;100013.75;;;24.17;27.53
18569;BME280;14780;48.316;-1.050;2023-03-04T06:10:04;100016.16;;;24.13;27.40
18569;BME280;14780;48.316;-1.050;2023-03-04T06:12:49;100015.56;;;24.11;27.42
18569;BME280;14780;48.316;-1.050;2023-03-04T06:15:34;100026.50;;;24.11;27.42
18569;BME280;14780;48.316;-1.050;2023-03-04T06:18:18;100030.53;;;24.09;27.53
18569;BME280;14780;48.316;-1.050;2023-03-04T06:21:03;100035.44;;;24.07;27.38
18569;BME280;14780;48.316;-1.050;2023-03-04T06:23:48;100029.16;;;24.06;27.48
18569;BME280;14780;48.316;-1.050;2023-03-04T06:26:33;100029.41;;;24.05;27.51
18569;BME280;14780;48.316;-1.050;2023-03-04T06:29:18;100030.50;;;24.04;27.44
18569;BME280;14780;48.316;-1.050;2023-03-04T06:32:02;100040.03;;;24.01;27.49
18569;BME280;14780;48.316;-1.050;2023-03-04T06:34:47;100039.44;;;23.99;27.49
18569;BME280;14780;48.316;-1.050;2023-03-04T06:37:32;100041.91;;;24.01;27.60
18569;BME280;14780;48.316;-1.050;2023-03-04T06:40:17;100036.72;;;23.99;27.54
18569;BME280;14780;48.316;-1.050;2023-03-04T06:43:01;100042.19;;;23.99;27.54
18569;BME280;14780;48.316;-1.050;2023-03-04T06:45:46;100045.97;;;23.98;27.52
18569;BME280;14780;48.316;-1.050;2023-03-04T06:48:32;100054.16;;;23.98;27.72
18569;BME280;14780;48.316;-1.050;2023-03-04T06:51:18;100053.38;;;23.98;27.55
18569;BME280;14780;48.316;-1.050;2023-03-04T06:54:03;100063.47;;;23.97;27.53
18569;BME280;14780;48.316;-1.050;2023-03-04T06:56:47;100068.91;;;23.97;27.60
18569;BME280;14780;48.316;-1.050;2023-03-04T06:59:32;100082.59;;;23.97;27.61
18569;BME280;14780;48.316;-1.050;2023-03-04T07:02:17;100078.44;;;23.95;27.65
18569;BME280;14780;48.316;-1.050;2023-03-04T07:05:02;100075.47;;;23.96;27.66
18569;BME280;14780;48.316;-1.050;2023-03-04T07:07:47;100080.38;;;23.94;27.61
18569;BME280;14780;48.316;-1.050;2023-03-04T07:10:33;100074.06;;;23.94;27.64
18569;BME280;14780;48.316;-1.050;2023-03-04T07:13:18;100080.38;;;23.94;27.50
18569;BME280;14780;48.316;-1.050;2023-03-04T07:16:04;100084.44;;;23.92;27.62
18569;BME280;14780;48.316;-1.050;2023-03-04T07:18:50;100087.16;;;23.92;27.55
18569;BME280;14780;48.316;-1.050;2023-03-04T07:21:35;100096.19;;;23.92;27.69
18569;BME280;14780;48.316;-1.050;2023-03-04T07:24:21;100091.78;;;23.91;27.72
18569;BME280;14780;48.316;-1.050;2023-03-04T07:27:06;100087.16;;;23.92;27.57
18569;BME280;14780;48.316;-1.050;2023-03-04T07:29:51;100082.53;;;23.92;27.58
18569;BME280;14780;48.316;-1.050;2023-03-04T07:32:35;100085.25;;;23.92;27.65
18569;BME280;14780;48.316;-1.050;2023-03-04T07:35:20;100084.44;;;23.92;27.57
18569;BME280;14780;48.316;-1.050;2023-03-04T07:38:05;100097.84;;;23.93;27.58
18569;BME280;14780;48.316;-1.050;2023-03-04T07:40:57;100091.31;;;23.94;27.63
18569;BME280;14780;48.316;-1.050;2023-03-04T07:43:43;100093.47;;;23.92;27.72
18569;BME280;14780;48.316;-1.050;2023-03-04T07:46:28;100100.31;;;23.95;27.55
18569;BME280;14780;48.316;-1.050;2023-03-04T07:49:13;100100.31;;;23.95;27.58
18569;BME280;14780;48.316;-1.050;2023-03-04T07:52:01;100104.72;;;23.96;27.54
18569;BME280;14780;48.316;-1.050;2023-03-04T07:54:46;100109.34;;;23.95;27.52
18569;BME280;14780;48.316;-1.050;2023-03-04T07:57:30;100105.78;;;23.95;27.55
18569;BME280;14780;48.316;-1.050;2023-03-04T08:00:16;100101.16;;;23.95;27.64
18569;BME280;14780;48.316;-1.050;2023-03-04T08:03:01;100103.88;;;23.95;27.57
18569;BME280;14780;48.316;-1.050;2023-03-04T08:05:46;100094.13;;;23.99;27.54
18569;BME280;14780;48.316;-1.050;2023-03-04T08:08:30;100100.16;;;24.01;27.59
18569;BME280;14780;48.316;-1.050;2023-03-04T08:11:18;100101.25;;;24.00;27.54
18569;BME280;14780;48.316;-1.050;2023-03-04T08:14:03;100101.25;;;24.00;27.59
18569;BME280;14780;48.316;-1.050;2023-03-04T08:16:48;100105.63;;;24.01;27.42
18569;BME280;14780;48.316;-1.050;2023-03-04T08:19:33;100103.97;;;24.00;27.62
18569;BME280;14780;48.316;-1.050;2023-03-04T08:22:18;100105.63;;;24.01;27.50
18569;BME280;14780;48.316;-1.050;2023-03-04T08:25:03;100109.19;;;24.02;27.46
18569;BME280;14780;48.316;-1.050;2023-03-04T08:27:48;100124.25;;;24.04;27.56
18569;BME280;14780;48.316;-1.050;2023-03-04T08:30:32;100118.78;;;24.04;27.45
18569;BME280;14780;48.316;-1.050;2023-03-04T08:33:17;100131.38;;;24.05;27.55
18569;BME280;14780;48.316;-1.050;2023-03-04T08:36:01;100127.00;;;24.04;27.60
18569;BME280;14780;48.316;-1.050;2023-03-04T08:38:47;100129.72;;;24.04;27.46
18569;BME280;14780;48.316;-1.050;2023-03-04T08:41:32;100128.91;;;24.04;27.53
18569;BME280;14780;48.316;-1.050;2023-03-04T08:44:16;100124.25;;;24.04;27.48
18569;BME280;14780;48.316;-1.050;2023-03-04T08:47:01;100126.75;;;24.06;27.55
18569;BME280;14780;48.316;-1.050;2023-03-04T08:49:46;100130.06;;;24.08;27.46
18569;BME280;14780;48.316;-1.050;2023-03-04T08:52:31;100128.41;;;24.07;27.55
18569;BME280;14780;48.316;-1.050;2023-03-04T08:55:16;100139.91;;;24.09;27.45
18569;BME280;14780;48.316;-1.050;2023-03-04T08:58:00;100139.69;;;24.10;27.59
18569;BME280;14780;48.316;-1.050;2023-03-04T09:00:46;100134.22;;;24.10;27.55
18569;BME280;14780;48.316;-1.050;2023-03-04T09:03:31;100132.31;;;24.11;27.55
18569;BME280;14780;48.316;-1.050;2023-03-04T09:06:17;100128.75;;;24.10;27.57
18569;BME280;14780;48.316;-1.050;2023-03-04T09:09:03;100140.25;;;24.12;27.48
18569;BME280;14780;48.316;-1.050;2023-03-04T09:11:47;100132.03;;;24.12;27.50
18569;BME280;14780;48.316;-1.050;2023-03-04T09:14:33;100134.78;;;24.12;27.50
18569;BME280;14780;48.316;-1.050;2023-03-04T09:17:19;100128.25;;;24.13;27.61
18569;BME280;14780;48.316;-1.050;2023-03-04T09:20:05;100131.00;;;24.13;27.66
18569;BME280;14780;48.316;-1.050;2023-03-04T09:22:49;100128.25;;;24.13;27.65
18569;BME280;14780;48.316;-1.050;2023-03-04T09:25:35;100123.59;;;24.14;27.70
18569;BME280;14780;48.316;-1.050;2023-03-04T09:28:20;100124.19;;;24.16;27.59
18569;BME280;14780;48.316;-1.050;2023-03-04T09:31:14;100126.44;;;24.19;27.67
18569;BME280;14780;48.316;-1.050;2023-03-04T09:33:59;100128.09;;;24.20;27.60
18569;BME280;14780;48.316;-1.050;2023-03-04T09:36:44;100122.84;;;24.18;27.67
18569;BME280;14780;48.316;-1.050;2023-03-04T09:39:28;100132.72;;;24.19;27.77
18569;BME280;14780;48.316;-1.050;2023-03-04T09:42:24;100133.56;;;24.20;27.65
18569;BME280;14780;48.316;-1.050;2023-03-04T09:45:21;100129.16;;;24.19;27.69
18569;BME280;14780;48.316;-1.050;2023-03-04T09:48:11;100135.44;;;24.19;27.81
18569;BME280;14780;48.316;-1.050;2023-03-04T09:56:49;100131.06;;;24.18;27.80
18569;BME280;14780;48.316;-1.050;2023-03-04T09:59:42;100130.56;;;24.21;27.66
18569;BME280;14780;48.316;-1.050;2023-03-04T10:05:54;100133.31;;;24.21;27.66
18569;BME280;14780;48.316;-1.050;2023-03-04T10:11:58;100124.84;;;24.23;27.70
18569;BME280;14780;48.316;-1.050;2023-03-04T10:14:59;100131.72;;;24.25;27.83
18569;BME280;14780;48.316;-1.050;2023-03-04T10:17:48;100131.72;;;24.25;27.81
18569;BME280;14780;48.316;-1.050;2023-03-04T10:20:53;100132.88;;;24.29;27.77
18569;BME280;14780;48.316;-1.050;2023-03-04T10:23:39;100129.53;;;24.27;27.78
18569;BME280;14780;48.316;-1.050;2023-03-04T10:26:29;100133.97;;;24.28;27.76
18569;BME280;14780;48.316;-1.050;2023-03-04T10:29:18;100133.97;;;24.28;27.65
18569;BME280;14780;48.316;-1.050;2023-03-04T10:32:02;100147.38;;;24.30;27.68
18569;BME280;14780;48.316;-1.050;2023-03-04T10:34:48;100130.16;;;24.29;27.85
18569;BME280;14780;48.316;-1.050;2023-03-04T10:37:48;100132.38;;;24.32;27.59
18569;BME280;14780;48.316;-1.050;2023-03-04T10:40:40;100130.16;;;24.29;27.63
18569;BME280;14780;48.316;-1.050;2023-03-04T10:43:26;100144.63;;;24.30;27.65
18569;BME280;14780;48.316;-1.050;2023-03-04T10:46:11;100133.97;;;24.28;27.72
18569;BME280;14780;48.316;-1.050;2023-03-04T10:48:57;100131.22;;;24.28;27.69
18569;BME280;14780;48.316;-1.050;2023-03-04T10:51:51;100133.97;;;24.28;27.74
18569;BME280;14780;48.316;-1.050;2023-03-04T10:54:54;100130.72;;;24.31;27.77
18569;BME280;14780;48.316;-1.050;2023-03-04T10:57:41;100129.06;;;24.30;27.72
18569;BME280;14780;48.316;-1.050;2023-03-04T11:00:33;100127.41;;;24.29;27.80
18569;BME280;14780;48.316;-1.050;2023-03-04T11:03:23;100127.75;;;24.33;27.89
18569;BME280;14780;48.316;-1.050;2023-03-04T11:06:20;100135.69;;;24.34;27.83
18569;BME280;14780;48.316;-1.050;2023-03-04T11:09:05;100131.88;;;24.35;27.75
18569;BME280;14780;48.316;-1.050;2023-03-04T11:12:08;100137.34;;;24.35;27.87
18569;BME280;14780;48.316;-1.050;2023-03-04T11:14:54;100137.94;;;24.37;27.87
18569;BME280;14780;48.316;-1.050;2023-03-04T11:17:46;100125.91;;;24.38;27.93
18569;BME280;14780;48.316;-1.050;2023-03-04T11:20:36;100130.06;;;24.41;27.96
18569;BME280;14780;48.316;-1.050;2023-03-04T11:27:02;100122.75;;;24.46;28.10
18569;BME280;14780;48.316;-1.050;2023-03-04T11:29:29;100121.09;;;24.45;28.21
18569;BME280;14780;48.316;-1.050;2023-03-04T11:32:21;100122.75;;;24.46;28.24
18569;BME280;14780;48.316;-1.050;2023-03-04T11:38:49;100114.63;;;24.51;27.95
18569;BME280;14780;48.316;-1.050;2023-03-04T11:41:37;100106.56;;;24.45;28.17
18569;BME280;14780;48.316;-1.050;2023-03-04T11:44:23;100103.84;;;24.45;28.13
18569;BME280;14780;48.316;-1.050;2023-03-04T11:53:30;100096.72;;;24.44;27.99
18569;BME280;14780;48.316;-1.050;2023-03-04T11:56:33;100094.56;;;24.46;28.07
18569;BME280;14780;48.316;-1.050;2023-03-04T12:26:48;100047.75;;;24.42;27.88
18569;BME280;14780;48.316;-1.050;2023-03-04T12:39:21;100041.66;;;24.40;27.81
18569;BME280;14780;48.316;-1.050;2023-03-04T12:42:55;100032.69;;;24.45;27.80
18569;BME280;14780;48.316;-1.050;2023-03-04T12:46:09;100031.56;;;24.41;27.84
18569;BME280;14780;48.316;-1.050;2023-03-04T12:54:47;100014.84;;;24.37;27.71
18569;BME280;14780;48.316;-1.050;2023-03-04T12:57:33;100014.84;;;24.37;27.75
18569;BME280;14780;48.316;-1.050;2023-03-04T13:00:32;100017.31;;;24.39;27.67
18569;BME280;14780;48.316;-1.050;2023-03-04T13:09:54;100016.72;;;24.37;27.62
18569;BME280;14780;48.316;-1.050;2023-03-04T13:12:52;100014.84;;;24.37;27.56
18569;BME280;14780;48.316;-1.050;2023-03-04T13:15:38;100000.84;;;24.34;27.54
18569;BME280;14780;48.316;-1.050;2023-03-04T13:18:36;100004.97;;;24.36;27.68
18569;BME280;14780;48.316;-1.050;2023-03-04T13:21:29;100007.72;;;24.36;27.65
18569;BME280;14780;48.316;-1.050;2023-03-04T13:24:46;100015.16;;;24.41;27.53
18569;BME280;14780;48.316;-1.050;2023-03-04T13:28:05;100008.84;;;24.40;27.53
18569;BME280;14780;48.316;-1.050;2023-03-04T13:33:51;99991.78;;;24.33;27.46
18569;BME280;14780;48.316;-1.050;2023-03-04T13:36:54;99996.25;;;24.39;27.52
18569;BME280;14780;48.316;-1.050;2023-03-04T13:39:39;99999.50;;;24.36;27.58
18569;BME280;14780;48.316;-1.050;2023-03-04T13:42:39;99998.22;;;24.44;27.65
18569;BME280;14780;48.316;-1.050;2023-03-04T13:45:36;99992.75;;;24.44;27.74
18569;BME280;14780;48.316;-1.050;2023-03-04T13:48:32;99985.38;;;24.44;27.75
18569;BME280;14780;48.316;-1.050;2023-03-04T13:51:32;99988.44;;;24.48;27.83
18569;BME280;14780;48.316;-1.050;2023-03-04T13:54:26;99984.31;;;24.45;27.90
18569;BME280;14780;48.316;-1.050;2023-03-04T14:00:03;99975.00;;;24.46;27.74
18569;BME280;14780;48.316;-1.050;2023-03-04T14:02:49;99981.81;;;24.44;27.81
18569;BME280;14780;48.316;-1.050;2023-03-04T14:05:35;99971.69;;;24.44;27.85
18569;BME280;14780;48.316;-1.050;2023-03-04T14:08:20;99975.00;;;24.46;27.73
18569;BME280;14780;48.316;-1.050;2023-03-04T14:11:09;99968.44;;;24.47;27.73
18569;BME280;14780;48.316;-1.050;2023-03-04T14:13:56;99962.72;;;24.49;27.67
18569;BME280;14780;48.316;-1.050;2023-03-04T14:16:51;99956.16;;;24.50;27.67
18569;BME280;14780;48.316;-1.050;2023-03-04T14:19:44;99947.16;;;24.49;27.69
18569;BME280;14780;48.316;-1.050;2023-03-04T14:22:32;99948.72;;;24.45;27.72
18569;BME280;14780;48.316;-1.050;2023-03-04T14:25:26;99943.56;;;24.49;27.76
18569;BME280;14780;48.316;-1.050;2023-03-04T14:28:14;99947.66;;;24.46;27.96
18569;BME280;14780;48.316;-1.050;2023-03-04T14:31:02;99940.28;;;24.47;27.77
18569;BME280;14780;48.316;-1.050;2023-03-04T14:33:50;99942.19;;;24.46;27.88
18569;BME280;14780;48.316;-1.050;2023-03-04T14:36:37;99932.88;;;24.47;27.79
18569;BME280;14780;48.316;-1.050;2023-03-04T14:39:25;99928.50;;;24.46;27.81
18569;BME280;14780;48.316;-1.050;2023-03-04T14:42:11;99926.59;;;24.47;27.92
18569;BME280;14780;48.316;-1.050;2023-03-04T14:44:58;99920.28;;;24.46;27.99
18569;BME280;14780;48.316;-1.050;2023-03-04T14:47:45;99924.94;;;24.46;27.86
18569;BME280;14780;48.316;-1.050;2023-03-04T14:50:32;99929.59;;;24.45;27.87
18569;BME280;14780;48.316;-1.050;2023-03-04T14:53:19;99927.94;;;24.44;27.95
18569;BME280;14780;48.316;-1.050;2023-03-04T14:56:07;99919.72;;;24.44;27.82
18569;BME280;14780;48.316;-1.050;2023-03-04T14:58:55;99920.81;;;24.43;27.95
18569;BME280;14780;48.316;-1.050;2023-03-04T15:01:41;99916.44;;;24.42;27.82
18569;BME280;14780;48.316;-1.050;2023-03-04T15:04:25;99914.75;;;24.41;27.86
18569;BME280;14780;48.316;-1.050;2023-03-04T15:07:24;99907.38;;;24.42;27.97
18569;BME280;14780;48.316;-1.050;2023-03-04T15:10:11;99904.91;;;24.40;27.89
18569;BME280;14780;48.316;-1.050;2023-03-04T15:12:59;99903.50;;;24.38;28.02
18569;BME280;14780;48.316;-1.050;2023-03-04T15:15:46;99899.69;;;24.39;27.97
18569;BME280;14780;48.316;-1.050;2023-03-04T15:18:31;99907.63;;;24.40;27.90
18569;BME280;14780;48.316;-1.050;2023-03-04T15:24:06;99907.31;;;24.37;27.98
18569;BME280;14780;48.316;-1.050;2023-03-04T15:26:51;99903.25;;;24.39;27.99
18569;BME280;14780;48.316;-1.050;2023-03-04T15:29:36;99903.25;;;24.39;27.96
18569;BME280;14780;48.316;-1.050;2023-03-04T15:32:28;99906.22;;;24.38;28.02
18569;BME280;14780;48.316;-1.050;2023-03-04T15:35:14;99904.59;;;24.37;28.15
18569;BME280;14780;48.316;-1.050;2023-03-04T15:38:00;99906.22;;;24.38;28.02
18569;BME280;14780;48.316;-1.050;2023-03-04T15:40:46;99902.44;;;24.39;28.22
18569;BME280;14780;48.316;-1.050;2023-03-04T15:43:31;99914.19;;;24.39;28.16
18569;BME280;14780;48.316;-1.050;2023-03-04T15:46:15;99906.53;;;24.41;28.14
18569;BME280;14780;48.316;-1.050;2023-03-04T15:49:00;99908.22;;;24.42;28.26
18569;BME280;14780;48.316;-1.050;2023-03-04T15:51:45;99903.81;;;24.41;28.40